sensor_id;sensor_type;location;lat;lon;timestamp;temperature;humidity
42095;DHT22;27753;55.724;37.612;2022-07-09T00:01:34;20.20;99.90
42095;DHT22;27753;55.724;37.612;2022-07-09T00:04:00;20.20;99.90
42095;DHT22;27753;55.724;37.612;2022-07-09T00:06:37;20.20;99.90
42095;DHT22;27753;55.724;37.612;2022-07-09T00:09:10;20.20;99.90
42095;DHT22;27753;55.724;37.612;2022-07-09T00:11:38;20.10;99.90
42095;DHT22;27753;55.724;37.612;2022-07-09T00:14:05;20.10;99.90
42095;DHT22;27753;55.724;37.612;2022-07-09T00:16:57;20.20;99.90
42095;DHT22;27753;55.724;37.612;2022-07-09T01:33:48;19.90;99.90
42095;DHT22;27753;55.724;37.612;2022-07-09T01:36:16;19.90;99.90
42095;DHT22;27753;55.724;37.612;2022-07-09T01:38:45;19.90;99.90
42095;DHT22;27753;55.724;37.612;2022-07-09T01:41:11;20.00;99.90
42095;DHT22;27753;55.724;37.612;2022-07-09T01:43:39;20.10;99.90
42095;DHT22;27753;55.724;37.612;2022-07-09T01:46:07;20.10;99.90
42095;DHT22;27753;55.724;37.612;2022-07-09T01:48:34;20.10;99.90
42095;DHT22;27753;55.724;37.612;2022-07-09T01:51:01;20.20;99.90
42095;DHT22;27753;55.724;37.612;2022-07-09T01:53:32;20.20;99.90
42095;DHT22;27753;55.724;37.612;2022-07-09T01:55:59;20.20;99.90
42095;DHT22;27753;55.724;37.612;2022-07-09T01:58:31;20.30;99.90
42095;DHT22;27753;55.724;37.612;2022-07-09T02:00:57;20.20;99.90
42095;DHT22;27753;55.724;37.612;2022-07-09T02:03:23;20.30;99.90
42095;DHT22;27753;55.724;37.612;2022-07-09T02:05:49;20.30;99.90
42095;DHT22;27753;55.724;37.612;2022-07-09T02:08:17;20.40;99.90
42095;DHT22;27753;55.724;37.612;2022-07-09T02:10:43;20.40;99.90
42095;DHT22;27753;55.724;37.612;2022-07-09T02:13:09;20.40;99.90
42095;DHT22;27753;55.724;37.612;2022-07-09T02:15:35;20.50;99.90
42095;DHT22;27753;55.724;37.612;2022-07-09T02:18:01;20.50;99.90
42095;DHT22;27753;55.724;37.612;2022-07-09T02:20:32;20.50;99.90
42095;DHT22;27753;55.724;37.612;2022-07-09T02:22:58;20.50;99.90
42095;DHT22;27753;55.724;37.612;2022-07-09T02:25:24;20.60;99.90
42095;DHT22;27753;55.724;37.612;2022-07-09T02:27:53;20.60;99.90
42095;DHT22;27753;55.724;37.612;2022-07-09T02:30:29;20.70;99.90
42095;DHT22;27753;55.724;37.612;2022-07-09T02:33:07;20.70;99.90
42095;DHT22;27753;55.724;37.612;2022-07-09T02:35:33;20.80;99.90
42095;DHT22;27753;55.724;37.612;2022-07-09T02:38:05;20.80;99.90
42095;DHT22;27753;55.724;37.612;2022-07-09T02:41:08;20.90;99.90
42095;DHT22;27753;55.724;37.612;2022-07-09T02:43:37;21.00;99.90
42095;DHT22;27753;55.724;37.612;2022-07-09T02:46:03;21.10;99.90
42095;DHT22;27753;55.724;37.612;2022-07-09T02:48:35;21.10;99.90
42095;DHT22;27753;55.724;37.612;2022-07-09T02:51:19;21.10;99.90
42095;DHT22;27753;55.724;37.612;2022-07-09T02:53:48;21.10;99.90
42095;DHT22;27753;55.724;37.612;2022-07-09T02:56:19;21.10;99.90
42095;DHT22;27753;55.724;37.612;2022-07-09T02:58:48;21.00;99.90
42095;DHT22;27753;55.724;37.612;2022-07-09T03:01:14;21.00;99.90
42095;DHT22;27753;55.724;37.612;2022-07-09T03:03:42;21.00;99.90
42095;DHT22;27753;55.724;37.612;2022-07-09T03:06:08;21.00;99.90
42095;DHT22;27753;55.724;37.612;2022-07-09T03:08:37;21.00;99.90
42095;DHT22;27753;55.724;37.612;2022-07-09T03:11:04;21.00;99.90
42095;DHT22;27753;55.724;37.612;2022-07-09T03:13:33;21.10;99.90
42095;DHT22;27753;55.724;37.612;2022-07-09T03:15:59;21.10;99.90
42095;DHT22;27753;55.724;37.612;2022-07-09T03:18:25;21.10;99.90
42095;DHT22;27753;55.724;37.612;2022-07-09T03:20:51;21.10;99.90
42095;DHT22;27753;55.724;37.612;2022-07-09T03:23:17;21.10;99.90
42095;DHT22;27753;55.724;37.612;2022-07-09T03:25:43;21.20;99.90
42095;DHT22;27753;55.724;37.612;2022-07-09T03:28:09;21.30;99.90
42095;DHT22;27753;55.724;37.612;2022-07-09T03:30:38;21.40;99.90
42095;DHT22;27753;55.724;37.612;2022-07-09T03:33:04;21.50;99.90
42095;DHT22;27753;55.724;37.612;2022-07-09T03:35:30;21.70;99.90
42095;DHT22;27753;55.724;37.612;2022-07-09T03:37:56;21.70;99.90
42095;DHT22;27753;55.724;37.612;2022-07-09T03:40:22;21.70;99.90
42095;DHT22;27753;55.724;37.612;2022-07-09T03:42:48;21.70;99.90
42095;DHT22;27753;55.724;37.612;2022-07-09T03:45:16;21.60;99.90
42095;DHT22;27753;55.724;37.612;2022-07-09T03:47:42;21.60;99.90
42095;DHT22;27753;55.724;37.612;2022-07-09T03:50:09;21.70;99.90
42095;DHT22;27753;55.724;37.612;2022-07-09T03:52:35;21.70;99.90
42095;DHT22;27753;55.724;37.612;2022-07-09T03:55:01;21.70;99.90
42095;DHT22;27753;55.724;37.612;2022-07-09T03:57:26;21.60;99.90
42095;DHT22;27753;55.724;37.612;2022-07-09T03:59:52;21.60;99.90
42095;DHT22;27753;55.724;37.612;2022-07-09T04:02:18;21.60;99.90
42095;DHT22;27753;55.724;37.612;2022-07-09T04:04:44;21.70;99.90
42095;DHT22;27753;55.724;37.612;2022-07-09T04:07:10;21.70;99.90
42095;DHT22;27753;55.724;37.612;2022-07-09T04:09:36;21.70;99.90
42095;DHT22;27753;55.724;37.612;2022-07-09T04:12:02;21.60;99.90
42095;DHT22;27753;55.724;37.612;2022-07-09T04:14:28;21.60;99.90
42095;DHT22;27753;55.724;37.612;2022-07-09T04:16:54;21.70;99.90
42095;DHT22;27753;55.724;37.612;2022-07-09T04:19:20;21.90;99.90
42095;DHT22;27753;55.724;37.612;2022-07-09T04:21:46;22.10;99.90
42095;DHT22;27753;55.724;37.612;2022-07-09T04:24:12;22.30;99.90
42095;DHT22;27753;55.724;37.612;2022-07-09T04:26:38;22.50;99.90
42095;DHT22;27753;55.724;37.612;2022-07-09T04:29:03;22.50;99.90
42095;DHT22;27753;55.724;37.612;2022-07-09T04:31:31;22.50;99.90
42095;DHT22;27753;55.724;37.612;2022-07-09T04:33:56;22.60;99.90
42095;DHT22;27753;55.724;37.612;2022-07-09T04:36:25;22.60;99.90
42095;DHT22;27753;55.724;37.612;2022-07-09T04:38:51;22.70;99.90
42095;DHT22;27753;55.724;37.612;2022-07-09T04:41:16;22.70;99.90
42095;DHT22;27753;55.724;37.612;2022-07-09T04:43:42;22.70;99.90
42095;DHT22;27753;55.724;37.612;2022-07-09T04:46:08;22.70;99.90
42095;DHT22;27753;55.724;37.612;2022-07-09T04:48:34;22.80;99.90
42095;DHT22;27753;55.724;37.612;2022-07-09T04:51:00;22.90;99.90
42095;DHT22;27753;55.724;37.612;2022-07-09T04:53:26;23.10;99.90
42095;DHT22;27753;55.724;37.612;2022-07-09T04:55:52;23.20;99.90
42095;DHT22;27753;55.724;37.612;2022-07-09T04:58:17;23.40;99.90
42095;DHT22;27753;55.724;37.612;2022-07-09T05:00:43;23.40;99.90
42095;DHT22;27753;55.724;37.612;2022-07-09T05:03:09;23.50;99.90
42095;DHT22;27753;55.724;37.612;2022-07-09T05:05:35;23.60;99.90
42095;DHT22;27753;55.724;37.612;2022-07-09T05:08:01;23.70;99.90
42095;DHT22;27753;55.724;37.612;2022-07-09T05:10:27;23.80;99.90
42095;DHT22;27753;55.724;37.612;2022-07-09T05:12:53;23.90;99.90
42095;DHT22;27753;55.724;37.612;2022-07-09T05:15:19;24.20;99.90
42095;DHT22;27753;55.724;37.612;2022-07-09T05:17:45;24.70;99.90
42095;DHT22;27753;55.724;37.612;2022-07-09T05:20:10;25.50;99.90
42095;DHT22;27753;55.724;37.612;2022-07-09T05:22:40;26.20;99.90
42095;DHT22;27753;55.724;37.612;2022-07-09T05:25:06;27.40;99.90
42095;DHT22;27753;55.724;37.612;2022-07-09T05:27:39;27.90;97.10
42095;DHT22;27753;55.724;37.612;2022-07-09T05:30:12;28.60;94.10
42095;DHT22;27753;55.724;37.612;2022-07-09T05:32:41;29.30;89.20
42095;DHT22;27753;55.724;37.612;2022-07-09T05:35:07;29.50;82.70
42095;DHT22;27753;55.724;37.612;2022-07-09T05:37:34;29.10;75.60
42095;DHT22;27753;55.724;37.612;2022-07-09T05:40:06;28.30;79.90
42095;DHT22;27753;55.724;37.612;2022-07-09T05:42:33;27.80;82.40
42095;DHT22;27753;55.724;37.612;2022-07-09T05:44:59;27.50;76.50
42095;DHT22;27753;55.724;37.612;2022-07-09T05:47:25;27.40;82.30
42095;DHT22;27753;55.724;37.612;2022-07-09T05:49:51;27.50;79.00
42095;DHT22;27753;55.724;37.612;2022-07-09T05:52:17;27.10;72.70
42095;DHT22;27753;55.724;37.612;2022-07-09T05:54:43;26.40;75.70
42095;DHT22;27753;55.724;37.612;2022-07-09T05:57:09;26.00;77.20
42095;DHT22;27753;55.724;37.612;2022-07-09T05:59:35;26.00;75.30
42095;DHT22;27753;55.724;37.612;2022-07-09T06:02:00;26.20;83.70
42095;DHT22;27753;55.724;37.612;2022-07-09T06:04:29;26.60;86.60
42095;DHT22;27753;55.724;37.612;2022-07-09T06:06:54;26.90;86.30
42095;DHT22;27753;55.724;37.612;2022-07-09T06:09:20;26.90;77.30
42095;DHT22;27753;55.724;37.612;2022-07-09T06:11:46;26.80;82.50
42095;DHT22;27753;55.724;37.612;2022-07-09T06:14:12;27.00;81.00
42095;DHT22;27753;55.724;37.612;2022-07-09T06:16:38;27.50;77.90
42095;DHT22;27753;55.724;37.612;2022-07-09T06:19:04;28.00;76.60
42095;DHT22;27753;55.724;37.612;2022-07-09T06:21:30;28.10;71.90
42095;DHT22;27753;55.724;37.612;2022-07-09T06:23:56;28.90;71.50
42095;DHT22;27753;55.724;37.612;2022-07-09T06:26:21;30.30;68.20
42095;DHT22;27753;55.724;37.612;2022-07-09T06:28:47;31.90;60.90
42095;DHT22;27753;55.724;37.612;2022-07-09T06:31:14;32.70;57.60
42095;DHT22;27753;55.724;37.612;2022-07-09T06:33:39;33.70;54.60
42095;DHT22;27753;55.724;37.612;2022-07-09T06:36:05;35.90;46.80
42095;DHT22;27753;55.724;37.612;2022-07-09T06:38:32;35.90;43.90
42095;DHT22;27753;55.724;37.612;2022-07-09T06:40:57;34.90;42.60
42095;DHT22;27753;55.724;37.612;2022-07-09T06:43:23;33.20;44.80
42095;DHT22;27753;55.724;37.612;2022-07-09T06:45:49;31.90;46.80
42095;DHT22;27753;55.724;37.612;2022-07-09T06:48:15;31.00;48.50
42095;DHT22;27753;55.724;37.612;2022-07-09T06:50:41;30.10;49.80
42095;DHT22;27753;55.724;37.612;2022-07-09T06:53:07;29.30;51.30
42095;DHT22;27753;55.724;37.612;2022-07-09T06:55:33;28.60;51.80
42095;DHT22;27753;55.724;37.612;2022-07-09T06:57:59;27.90;55.30
42095;DHT22;27753;55.724;37.612;2022-07-09T07:00:25;27.70;53.70
42095;DHT22;27753;55.724;37.612;2022-07-09T07:02:51;27.70;54.30
42095;DHT22;27753;55.724;37.612;2022-07-09T07:05:17;27.80;54.60
42095;DHT22;27753;55.724;37.612;2022-07-09T07:07:43;27.80;54.90
42095;DHT22;27753;55.724;37.612;2022-07-09T07:10:09;27.90;54.20
42095;DHT22;27753;55.724;37.612;2022-07-09T07:12:35;27.90;53.90
42095;DHT22;27753;55.724;37.612;2022-07-09T07:15:01;28.00;53.70
42095;DHT22;27753;55.724;37.612;2022-07-09T07:17:26;28.90;53.50
42095;DHT22;27753;55.724;37.612;2022-07-09T07:19:52;30.10;51.90
42095;DHT22;27753;55.724;37.612;2022-07-09T07:22:19;31.20;50.20
42095;DHT22;27753;55.724;37.612;2022-07-09T07:24:44;32.90;47.40
42095;DHT22;27753;55.724;37.612;2022-07-09T07:27:10;33.50;45.50
42095;DHT22;27753;55.724;37.612;2022-07-09T07:29:36;32.90;44.10
42095;DHT22;27753;55.724;37.612;2022-07-09T07:32:02;32.00;45.30
42095;DHT22;27753;55.724;37.612;2022-07-09T07:34:28;30.90;46.50
42095;DHT22;27753;55.724;37.612;2022-07-09T07:36:54;30.00;48.20
42095;DHT22;27753;55.724;37.612;2022-07-09T07:39:20;28.40;50.70
42095;DHT22;27753;55.724;37.612;2022-07-09T07:41:48;28.10;51.70
42095;DHT22;27753;55.724;37.612;2022-07-09T07:44:14;27.50;54.10
42095;DHT22;27753;55.724;37.612;2022-07-09T07:46:40;27.00;55.30
42095;DHT22;27753;55.724;37.612;2022-07-09T07:49:06;26.60;56.10
42095;DHT22;27753;55.724;37.612;2022-07-09T07:51:32;26.40;57.30
42095;DHT22;27753;55.724;37.612;2022-07-09T07:54:01;26.20;57.50
42095;DHT22;27753;55.724;37.612;2022-07-09T07:56:31;25.70;58.10
42095;DHT22;27753;55.724;37.612;2022-07-09T07:58:58;25.20;59.60
42095;DHT22;27753;55.724;37.612;2022-07-09T08:01:24;25.20;60.70
42095;DHT22;27753;55.724;37.612;2022-07-09T08:03:50;25.30;60.90
42095;DHT22;27753;55.724;37.612;2022-07-09T08:06:16;25.30;60.00
42095;DHT22;27753;55.724;37.612;2022-07-09T08:08:42;25.10;60.30
42095;DHT22;27753;55.724;37.612;2022-07-09T08:11:08;24.90;61.50
42095;DHT22;27753;55.724;37.612;2022-07-09T08:13:33;24.90;61.90
42095;DHT22;27753;55.724;37.612;2022-07-09T08:15:59;24.80;62.40
42095;DHT22;27753;55.724;37.612;2022-07-09T08:18:27;24.90;62.50
42095;DHT22;27753;55.724;37.612;2022-07-09T08:20:53;25.00;62.70
42095;DHT22;27753;55.724;37.612;2022-07-09T08:23:19;24.80;63.80
42095;DHT22;27753;55.724;37.612;2022-07-09T08:25:45;24.60;64.70
42095;DHT22;27753;55.724;37.612;2022-07-09T08:28:11;24.60;65.50
42095;DHT22;27753;55.724;37.612;2022-07-09T08:30:36;24.60;65.00
42095;DHT22;27753;55.724;37.612;2022-07-09T08:33:02;24.70;64.70
42095;DHT22;27753;55.724;37.612;2022-07-09T08:35:28;24.70;64.70
42095;DHT22;27753;55.724;37.612;2022-07-09T08:37:55;24.50;64.60
42095;DHT22;27753;55.724;37.612;2022-07-09T08:40:22;24.20;64.80
42095;DHT22;27753;55.724;37.612;2022-07-09T08:42:49;24.10;65.80
42095;DHT22;27753;55.724;37.612;2022-07-09T08:45:17;23.90;64.90
42095;DHT22;27753;55.724;37.612;2022-07-09T08:47:43;23.80;64.90
42095;DHT22;27753;55.724;37.612;2022-07-09T08:50:09;23.70;64.00
42095;DHT22;27753;55.724;37.612;2022-07-09T08:52:39;23.70;64.30
42095;DHT22;27753;55.724;37.612;2022-07-09T08:55:06;23.70;64.70
42095;DHT22;27753;55.724;37.612;2022-07-09T08:57:33;23.60;65.60
42095;DHT22;27753;55.724;37.612;2022-07-09T09:00:03;23.80;66.40
42095;DHT22;27753;55.724;37.612;2022-07-09T09:02:40;23.90;67.00
42095;DHT22;27753;55.724;37.612;2022-07-09T09:05:16;24.00;66.70
42095;DHT22;27753;55.724;37.612;2022-07-09T09:07:43;24.20;66.10
42095;DHT22;27753;55.724;37.612;2022-07-09T09:10:20;24.40;66.00
42095;DHT22;27753;55.724;37.612;2022-07-09T09:12:47;24.60;66.80
42095;DHT22;27753;55.724;37.612;2022-07-09T09:15:17;24.80;66.70
42095;DHT22;27753;55.724;37.612;2022-07-09T09:17:44;25.00;67.20
42095;DHT22;27753;55.724;37.612;2022-07-09T09:20:13;25.10;66.50
42095;DHT22;27753;55.724;37.612;2022-07-09T09:22:47;25.20;65.00
42095;DHT22;27753;55.724;37.612;2022-07-09T09:25:21;25.10;65.40
42095;DHT22;27753;55.724;37.612;2022-07-09T09:27:54;24.90;64.70
42095;DHT22;27753;55.724;37.612;2022-07-09T09:30:21;24.60;66.30
42095;DHT22;27753;55.724;37.612;2022-07-09T09:32:58;24.60;67.50
42095;DHT22;27753;55.724;37.612;2022-07-09T09:35:25;24.70;67.60
42095;DHT22;27753;55.724;37.612;2022-07-09T09:37:51;24.80;67.40
42095;DHT22;27753;55.724;37.612;2022-07-09T09:40:17;25.00;67.60
42095;DHT22;27753;55.724;37.612;2022-07-09T09:42:46;25.00;66.10
42095;DHT22;27753;55.724;37.612;2022-07-09T09:45:14;25.10;66.00
42095;DHT22;27753;55.724;37.612;2022-07-09T09:47:48;24.90;65.20
42095;DHT22;27753;55.724;37.612;2022-07-09T09:52:46;24.70;66.70
42095;DHT22;27753;55.724;37.612;2022-07-09T09:55:13;24.70;68.30
42095;DHT22;27753;55.724;37.612;2022-07-09T09:57:40;24.60;67.40
42095;DHT22;27753;55.724;37.612;2022-07-09T10:00:06;24.10;68.00
42095;DHT22;27753;55.724;37.612;2022-07-09T10:02:33;23.80;70.70
42095;DHT22;27753;55.724;37.612;2022-07-09T10:05:01;23.90;72.10
42095;DHT22;27753;55.724;37.612;2022-07-09T10:07:27;24.00;74.10
42095;DHT22;27753;55.724;37.612;2022-07-09T10:09:56;24.20;70.20
42095;DHT22;27753;55.724;37.612;2022-07-09T10:12:30;24.40;70.00
42095;DHT22;27753;55.724;37.612;2022-07-09T10:14:57;24.70;69.30
42095;DHT22;27753;55.724;37.612;2022-07-09T10:17:24;24.70;68.60
42095;DHT22;27753;55.724;37.612;2022-07-09T10:19:57;24.60;68.80
42095;DHT22;27753;55.724;37.612;2022-07-09T10:22:40;24.60;69.10
42095;DHT22;27753;55.724;37.612;2022-07-09T10:25:08;24.40;69.30
42095;DHT22;27753;55.724;37.612;2022-07-09T10:27:45;24.20;70.50
42095;DHT22;27753;55.724;37.612;2022-07-09T10:30:33;24.20;71.20
42095;DHT22;27753;55.724;37.612;2022-07-09T10:33:30;24.30;70.80
42095;DHT22;27753;55.724;37.612;2022-07-09T10:35:57;24.60;70.60
42095;DHT22;27753;55.724;37.612;2022-07-09T10:38:34;24.80;70.30
42095;DHT22;27753;55.724;37.612;2022-07-09T10:41:02;25.20;69.40
42095;DHT22;27753;55.724;37.612;2022-07-09T10:43:41;25.30;68.80
42095;DHT22;27753;55.724;37.612;2022-07-09T10:46:11;25.50;69.00
42095;DHT22;27753;55.724;37.612;2022-07-09T10:48:41;25.40;68.20
42095;DHT22;27753;55.724;37.612;2022-07-09T10:51:07;25.30;68.80
42095;DHT22;27753;55.724;37.612;2022-07-09T10:53:32;25.20;68.70
42095;DHT22;27753;55.724;37.612;2022-07-09T10:55:59;25.40;68.30
42095;DHT22;27753;55.724;37.612;2022-07-09T10:58:25;25.60;68.00
42095;DHT22;27753;55.724;37.612;2022-07-09T11:00:55;25.80;67.40
42095;DHT22;27753;55.724;37.612;2022-07-09T11:03:31;25.80;63.40
42095;DHT22;27753;55.724;37.612;2022-07-09T11:05:58;25.80;60.70
42095;DHT22;27753;55.724;37.612;2022-07-09T11:08:24;25.50;56.90
42095;DHT22;27753;55.724;37.612;2022-07-09T11:10:50;25.10;58.10
42095;DHT22;27753;55.724;37.612;2022-07-09T11:13:16;24.80;58.00
42095;DHT22;27753;55.724;37.612;2022-07-09T11:15:42;24.60;58.70
42095;DHT22;27753;55.724;37.612;2022-07-09T11:18:09;24.50;59.50
42095;DHT22;27753;55.724;37.612;2022-07-09T11:20:40;24.80;59.20
42095;DHT22;27753;55.724;37.612;2022-07-09T11:23:08;25.00;58.60
42095;DHT22;27753;55.724;37.612;2022-07-09T11:25:34;25.00;58.10
42095;DHT22;27753;55.724;37.612;2022-07-09T11:28:00;24.80;58.70
42095;DHT22;27753;55.724;37.612;2022-07-09T11:30:28;24.80;59.80
42095;DHT22;27753;55.724;37.612;2022-07-09T11:32:55;24.80;61.10
42095;DHT22;27753;55.724;37.612;2022-07-09T11:35:28;24.90;61.50
42095;DHT22;27753;55.724;37.612;2022-07-09T11:37:58;25.10;61.60
42095;DHT22;27753;55.724;37.612;2022-07-09T11:40:25;25.20;62.20
42095;DHT22;27753;55.724;37.612;2022-07-09T11:42:51;25.40;62.30
42095;DHT22;27753;55.724;37.612;2022-07-09T11:45:27;25.60;63.00
42095;DHT22;27753;55.724;37.612;2022-07-09T11:48:05;25.40;65.30
42095;DHT22;27753;55.724;37.612;2022-07-09T11:50:32;25.30;66.00
42095;DHT22;27753;55.724;37.612;2022-07-09T11:52:58;25.20;66.40
42095;DHT22;27753;55.724;37.612;2022-07-09T11:55:31;25.20;66.40
42095;DHT22;27753;55.724;37.612;2022-07-09T11:57:59;25.20;66.20
42095;DHT22;27753;55.724;37.612;2022-07-09T12:00:29;25.10;66.90
42095;DHT22;27753;55.724;37.612;2022-07-09T12:02:57;25.10;66.80
42095;DHT22;27753;55.724;37.612;2022-07-09T12:05:32;25.00;65.90
42095;DHT22;27753;55.724;37.612;2022-07-09T12:08:00;25.00;67.00
42095;DHT22;27753;55.724;37.612;2022-07-09T12:10:32;25.10;67.50
42095;DHT22;27753;55.724;37.612;2022-07-09T12:12:59;25.30;66.80
42095;DHT22;27753;55.724;37.612;2022-07-09T12:15:26;25.10;67.50
42095;DHT22;27753;55.724;37.612;2022-07-09T12:17:54;25.00;68.10
42095;DHT22;27753;55.724;37.612;2022-07-09T12:20:25;25.10;67.70
42095;DHT22;27753;55.724;37.612;2022-07-09T12:22:51;25.20;65.60
42095;DHT22;27753;55.724;37.612;2022-07-09T12:25:19;25.10;65.20
42095;DHT22;27753;55.724;37.612;2022-07-09T12:27:45;25.10;64.90
42095;DHT22;27753;55.724;37.612;2022-07-09T12:30:12;25.10;64.50
42095;DHT22;27753;55.724;37.612;2022-07-09T12:32:39;25.10;63.10
42095;DHT22;27753;55.724;37.612;2022-07-09T12:35:05;25.00;63.10
42095;DHT22;27753;55.724;37.612;2022-07-09T12:37:31;25.10;62.80
42095;DHT22;27753;55.724;37.612;2022-07-09T12:39:57;25.20;62.50
42095;DHT22;27753;55.724;37.612;2022-07-09T12:42:23;25.30;60.80
42095;DHT22;27753;55.724;37.612;2022-07-09T12:44:49;25.40;60.50
42095;DHT22;27753;55.724;37.612;2022-07-09T12:47:18;25.50;60.00
42095;DHT22;27753;55.724;37.612;2022-07-09T12:49:44;25.70;59.60
42095;DHT22;27753;55.724;37.612;2022-07-09T12:52:10;25.80;59.40
42095;DHT22;27753;55.724;37.612;2022-07-09T12:54:36;25.80;58.30
42095;DHT22;27753;55.724;37.612;2022-07-09T12:57:03;25.70;58.10
42095;DHT22;27753;55.724;37.612;2022-07-09T12:59:29;25.60;58.10
42095;DHT22;27753;55.724;37.612;2022-07-09T13:01:55;25.80;58.70
42095;DHT22;27753;55.724;37.612;2022-07-09T13:04:27;26.00;59.00
42095;DHT22;27753;55.724;37.612;2022-07-09T13:06:53;26.00;58.30
42095;DHT22;27753;55.724;37.612;2022-07-09T13:09:19;26.10;57.90
42095;DHT22;27753;55.724;37.612;2022-07-09T13:11:45;25.90;57.60
42095;DHT22;27753;55.724;37.612;2022-07-09T13:14:11;25.50;58.30
42095;DHT22;27753;55.724;37.612;2022-07-09T13:16:37;25.30;59.40
42095;DHT22;27753;55.724;37.612;2022-07-09T13:19:04;25.00;59.90
42095;DHT22;27753;55.724;37.612;2022-07-09T13:21:30;24.90;60.60
42095;DHT22;27753;55.724;37.612;2022-07-09T13:23:57;24.80;61.50
42095;DHT22;27753;55.724;37.612;2022-07-09T13:26:26;24.70;62.00
42095;DHT22;27753;55.724;37.612;2022-07-09T13:28:52;24.60;62.90
42095;DHT22;27753;55.724;37.612;2022-07-09T13:31:22;24.60;63.20
42095;DHT22;27753;55.724;37.612;2022-07-09T13:33:50;24.50;63.70
42095;DHT22;27753;55.724;37.612;2022-07-09T13:36:16;24.50;64.00
42095;DHT22;27753;55.724;37.612;2022-07-09T13:38:43;24.60;64.00
42095;DHT22;27753;55.724;37.612;2022-07-09T13:41:08;25.50;62.80
42095;DHT22;27753;55.724;37.612;2022-07-09T13:43:34;26.60;60.70
42095;DHT22;27753;55.724;37.612;2022-07-09T13:46:00;27.80;58.90
42095;DHT22;27753;55.724;37.612;2022-07-09T13:50:53;29.50;54.50
42095;DHT22;27753;55.724;37.612;2022-07-09T13:53:20;30.00;53.20
42095;DHT22;27753;55.724;37.612;2022-07-09T13:55:46;30.40;52.40
42095;DHT22;27753;55.724;37.612;2022-07-09T13:58:12;30.70;51.70
42095;DHT22;27753;55.724;37.612;2022-07-09T14:00:38;31.10;51.40
42095;DHT22;27753;55.724;37.612;2022-07-09T14:03:05;31.10;50.90
42095;DHT22;27753;55.724;37.612;2022-07-09T14:05:31;31.10;51.70
42095;DHT22;27753;55.724;37.612;2022-07-09T14:07:57;31.20;50.20
42095;DHT22;27753;55.724;37.612;2022-07-09T14:10:24;30.70;50.50
42095;DHT22;27753;55.724;37.612;2022-07-09T14:12:52;29.90;51.20
42095;DHT22;27753;55.724;37.612;2022-07-09T14:15:18;29.20;53.00
42095;DHT22;27753;55.724;37.612;2022-07-09T14:17:44;28.80;54.20
42095;DHT22;27753;55.724;37.612;2022-07-09T14:20:11;28.60;54.60
42095;DHT22;27753;55.724;37.612;2022-07-09T14:22:41;28.90;54.50
42095;DHT22;27753;55.724;37.612;2022-07-09T14:25:07;29.00;54.10
42095;DHT22;27753;55.724;37.612;2022-07-09T14:27:33;28.80;53.90
42095;DHT22;27753;55.724;37.612;2022-07-09T14:29:59;28.10;55.10
42095;DHT22;27753;55.724;37.612;2022-07-09T14:32:25;27.40;56.70
42095;DHT22;27753;55.724;37.612;2022-07-09T14:34:51;26.80;57.90
42095;DHT22;27753;55.724;37.612;2022-07-09T14:37:17;26.40;59.20
42095;DHT22;27753;55.724;37.612;2022-07-09T14:39:42;26.00;60.20
42095;DHT22;27753;55.724;37.612;2022-07-09T14:42:08;25.70;61.10
42095;DHT22;27753;55.724;37.612;2022-07-09T14:44:34;25.50;61.50
42095;DHT22;27753;55.724;37.612;2022-07-09T14:47:03;25.40;62.20
42095;DHT22;27753;55.724;37.612;2022-07-09T14:49:39;25.30;62.90
42095;DHT22;27753;55.724;37.612;2022-07-09T14:52:16;25.20;64.00
42095;DHT22;27753;55.724;37.612;2022-07-09T14:55:14;25.10;63.80
42095;DHT22;27753;55.724;37.612;2022-07-09T14:57:43;24.90;64.10
42095;DHT22;27753;55.724;37.612;2022-07-09T15:00:10;24.80;65.60
42095;DHT22;27753;55.724;37.612;2022-07-09T15:02:39;24.60;65.50
42095;DHT22;27753;55.724;37.612;2022-07-09T15:05:06;24.60;65.80
42095;DHT22;27753;55.724;37.612;2022-07-09T15:07:33;24.50;66.40
42095;DHT22;27753;55.724;37.612;2022-07-09T15:10:09;24.50;66.40
42095;DHT22;27753;55.724;37.612;2022-07-09T15:12:35;24.60;66.30
42095;DHT22;27753;55.724;37.612;2022-07-09T15:15:03;24.70;66.40
42095;DHT22;27753;55.724;37.612;2022-07-09T15:17:29;24.80;65.80
42095;DHT22;27753;55.724;37.612;2022-07-09T15:19:54;24.80;65.90
42095;DHT22;27753;55.724;37.612;2022-07-09T15:22:20;24.70;66.10
42095;DHT22;27753;55.724;37.612;2022-07-09T15:24:46;24.70;66.50
42095;DHT22;27753;55.724;37.612;2022-07-09T15:27:13;24.70;66.60
42095;DHT22;27753;55.724;37.612;2022-07-09T15:29:41;24.70;65.80
42095;DHT22;27753;55.724;37.612;2022-07-09T15:32:07;24.50;66.00
42095;DHT22;27753;55.724;37.612;2022-07-09T15:34:33;24.50;66.60
42095;DHT22;27753;55.724;37.612;2022-07-09T15:36:59;24.50;67.30
42095;DHT22;27753;55.724;37.612;2022-07-09T15:39:26;24.40;67.90
42095;DHT22;27753;55.724;37.612;2022-07-09T15:41:55;24.40;67.90
42095;DHT22;27753;55.724;37.612;2022-07-09T15:44:21;24.40;68.60
42095;DHT22;27753;55.724;37.612;2022-07-09T15:46:47;24.40;68.60
42095;DHT22;27753;55.724;37.612;2022-07-09T15:49:13;24.40;68.00
42095;DHT22;27753;55.724;37.612;2022-07-09T15:51:38;24.40;68.00
42095;DHT22;27753;55.724;37.612;2022-07-09T15:54:04;24.30;68.20
42095;DHT22;27753;55.724;37.612;2022-07-09T15:56:30;24.30;68.30
42095;DHT22;27753;55.724;37.612;2022-07-09T15:58:56;24.40;68.50
42095;DHT22;27753;55.724;37.612;2022-07-09T16:01:22;24.30;67.60
42095;DHT22;27753;55.724;37.612;2022-07-09T16:03:51;24.30;67.50
42095;DHT22;27753;55.724;37.612;2022-07-09T16:06:17;24.20;67.90
42095;DHT22;27753;55.724;37.612;2022-07-09T16:08:42;24.20;68.10
42095;DHT22;27753;55.724;37.612;2022-07-09T16:11:09;24.20;68.10
42095;DHT22;27753;55.724;37.612;2022-07-09T16:13:53;24.10;68.40
42095;DHT22;27753;55.724;37.612;2022-07-09T16:16:20;24.10;69.20
42095;DHT22;27753;55.724;37.612;2022-07-09T16:18:46;24.10;69.70
42095;DHT22;27753;55.724;37.612;2022-07-09T16:21:14;24.10;70.30
42095;DHT22;27753;55.724;37.612;2022-07-09T16:23:41;24.10;68.90
42095;DHT22;27753;55.724;37.612;2022-07-09T16:26:07;24.00;69.00
42095;DHT22;27753;55.724;37.612;2022-07-09T16:28:33;24.00;69.20
42095;DHT22;27753;55.724;37.612;2022-07-09T16:30:59;23.90;69.30
42095;DHT22;27753;55.724;37.612;2022-07-09T16:33:25;23.90;69.70
42095;DHT22;27753;55.724;37.612;2022-07-09T16:35:51;23.90;69.90
42095;DHT22;27753;55.724;37.612;2022-07-09T16:38:17;23.80;70.20